WetterOnline ( https://www.wetteronline.de )

Wetter aktuell Elmstein

Aktuelles Wetter: Weinbiet/Pfalz (557m)

6-stündlich | Neueste Meldungen
Ortszeit Temperatur Wetter
Di, 10.12. 13:00 2.3° C fast wolkenlos
Di, 10.12. 7:00 -0.5° C bewölkt
Di, 10.12. 1:00 1.3° C wolkig
Mo, 09.12. 19:00 3.1° C Sprühregen
Mo, 09.12. 13:00 4.1° C Sprühregen
Mo, 09.12. 7:00 4.2° C Sprühregen
Mo, 09.12. 1:00 5.4° C bewölkt
So, 08.12. 19:00 7.9° C Sprühregen
Ortszeit Temperatur Wetter
Di, 10.12. 17:30 -0.2° C wolkenlos
Di, 10.12. 17:20 -0.2° C wolkenlos
Di, 10.12. 17:10 -0.2° C wolkenlos
Di, 10.12. 17:00 -0.2° C wolkenlos
Di, 10.12. 16:50 -0.2° C wolkenlos
Di, 10.12. 16:40 -0.3° C leicht bewölkt
Di, 10.12. 16:30 -0.5° C bewölkt
Di, 10.12. 16:00 -0.0° C wolkig
Di, 10.12. 15:30 0.3° C wolkig
Di, 10.12. 15:00 1.6° C bewölkt
Di, 10.12. 14:30 2.0° C wolkig
Di, 10.12. 14:00 2.3° C fast wolkenlos
Ortszeit Relative Feuchte Sichtweite
Di, 10.12. 13:00 83% 10 km
Di, 10.12. 7:00 100% 10 km
Di, 10.12. 1:00 92% 10 km
Mo, 09.12. 19:00 100% 3.0 km
Mo, 09.12. 13:00 99% 10 km
Mo, 09.12. 7:00 90% 10 km
Mo, 09.12. 1:00 88% 10 km
So, 08.12. 19:00 96% 10 km
Ortszeit Relative Feuchte Sichtweite
Di, 10.12. 17:30 96% 10 km
Di, 10.12. 17:20 96% -
Di, 10.12. 17:10 96% -
Di, 10.12. 17:00 96% 10 km
Di, 10.12. 16:50 96% -
Di, 10.12. 16:40 96% -
Di, 10.12. 16:30 96% 10 km
Di, 10.12. 16:00 94% 10 km
Di, 10.12. 15:30 94% 10 km
Di, 10.12. 15:00 87% 10 km
Di, 10.12. 14:30 89% 10 km
Di, 10.12. 14:00 82% 10 km
Ortszeit Niederschlagsmenge Niederschlagsart
Di, 10.12. 13:00 0.0 l/m2 in 6 Std. -
Di, 10.12. 7:00 0.5 l/m2 in 12 Std. -
Di, 10.12. 1:00 0.5 l/m2 in 6 Std. Regen
Mo, 09.12. 19:00 2 l/m2 in 12 Std. Regen
Mo, 09.12. 13:00 1 l/m2 in 6 Std. Regen
Mo, 09.12. 7:00 3 l/m2 in 12 Std. Schnee, Regen
Mo, 09.12. 1:00 0.3 l/m2 in 6 Std. Regen
So, 08.12. 19:00 0.1 l/m2 in 12 Std. Regen
Ortszeit Niederschlagsmenge Niederschlagsart
Di, 10.12. 17:30 0.0 l/m2 in 1 Std. -
Di, 10.12. 17:20 keine Meldung -
Di, 10.12. 17:10 keine Meldung -
Di, 10.12. 17:00 0.0 l/m2 in 1 Std. -
Di, 10.12. 16:50 keine Meldung -
Di, 10.12. 16:40 keine Meldung -
Di, 10.12. 16:30 0.0 l/m2 in 1 Std. -
Di, 10.12. 16:00 0.0 l/m2 in 1 Std. -
Di, 10.12. 15:30 0.0 l/m2 in 1 Std. -
Di, 10.12. 15:00 0.0 l/m2 in 1 Std. -
Di, 10.12. 14:30 0.0 l/m2 in 1 Std. -
Di, 10.12. 14:00 0.0 l/m2 in 1 Std. -
Ortszeit Stärke Spitze Richtung
km/h Bft. km/h Grad Sektor
Di, 10.12. 13:00 20 4 31 240° SW
Di, 10.12. 7:00 28 4 46 270° W
Di, 10.12. 1:00 29 5 68 310° NW
Mo, 09.12. 19:00 37 5 67 270° W
Mo, 09.12. 13:00 47 6 90 250° W
Mo, 09.12. 7:00 61 7 97 240° SW
Mo, 09.12. 1:00 67 8 96 250° W
So, 08.12. 19:00 61 7 90 240° SW
Ortszeit Stärke Spitze Richtung
km/h Bft. km/h Grad Sektor
Di, 10.12. 17:30 18 3 25 230° SW
Di, 10.12. 17:20 18 3 - 230° SW
Di, 10.12. 17:10 18 3 - 220° SW
Di, 10.12. 17:00 17 3 24 200° S
Di, 10.12. 16:50 17 3 - 200° S
Di, 10.12. 16:40 17 3 - 220° SW
Di, 10.12. 16:30 14 3 25 230° SW
Di, 10.12. 16:00 22 4 36 250° W
Di, 10.12. 15:30 24 4 31 240° SW
Di, 10.12. 15:00 18 3 29 240° SW
Di, 10.12. 14:30 17 3 28 240° SW
Di, 10.12. 14:00 18 3 29 240° SW
Ortszeit Untergrenze Bedeckung Gattung
total tief tief mittel hoch
Di, 10.12. 13:00 330 m 1/8 1/8 - - -
Di, 10.12. 7:00 30 m 7/8 7/8 - - -
Di, 10.12. 1:00 690 m 6/8 6/8 - - -
Mo, 09.12. 19:00 120 m 8/8 7/8 - - -
Mo, 09.12. 13:00 210 m 7/8 7/8 - - -
Mo, 09.12. 7:00 510 m 7/8 7/8 - - -
Mo, 09.12. 1:00 390 m 7/8 8/8 - - -
So, 08.12. 19:00 180 m 8/8 8/8 - - -
Ortszeit Bedeckungsgrad in Achtel und Wolkenuntergrenze
Di, 10.12. 17:30 keine Wolken
Di, 10.12. 17:20 keine Wolken
Di, 10.12. 17:10 keine Wolken
Di, 10.12. 17:00 keine Wolken
Di, 10.12. 16:50 keine Wolken
Di, 10.12. 16:40 2(5700m)
Di, 10.12. 16:30 7(5700m)
Di, 10.12. 16:00 7(6000m)
Di, 10.12. 15:30 5(150m) 6(6300m)
Di, 10.12. 15:00 7(180m) 7(330m)
Di, 10.12. 14:30 4(300m) 5(6000m)
Di, 10.12. 14:00 1(330m)
Ortszeit Luftdruck NN (hPa) Tendenz (hPa in 3 Std.)
Di, 10.12. 13:00 1029 0,0
Di, 10.12. 7:00 1028 + 2,6
Di, 10.12. 1:00 1021 + 5,2
Mo, 09.12. 19:00 1009 + 3,4
Mo, 09.12. 13:00 1002 + 0,8
Mo, 09.12. 7:00 1002 - 1,0
Mo, 09.12. 1:00 1005 + 0,3
So, 08.12. 19:00 1004 - 1,9
Ortszeit Luftdruck NN (hPa) Tendenz (hPa in 3 Std.)
Di, 10.12. 17:30 1027 - 1,6
Di, 10.12. 17:20 1027 keine Meldung
Di, 10.12. 17:10 1027 keine Meldung
Di, 10.12. 17:00 1027 - 1,8
Di, 10.12. 16:50 1027 keine Meldung
Di, 10.12. 16:40 1027 keine Meldung
Di, 10.12. 16:30 1027 - 2,1
Di, 10.12. 16:00 1027 - 2,2
Di, 10.12. 15:30 1027 - 1,8
Di, 10.12. 15:00 1027 - 1,5
Di, 10.12. 14:30 1028 - 1,5
Di, 10.12. 14:00 1028 - 1,3
Ortszeit Schneehöhe (cm)
Di, 10.12. 13:00 0
Di, 10.12. 7:00 0
Di, 10.12. 1:00 0
Mo, 09.12. 19:00 0
Mo, 09.12. 13:00 0
Mo, 09.12. 7:00 0
Mo, 09.12. 1:00 0
So, 08.12. 19:00 0
Ortszeit Schneehöhe (cm)
Di, 10.12. 17:30 0
Di, 10.12. 17:20 0
Di, 10.12. 17:10 0
Di, 10.12. 17:00 0
Di, 10.12. 16:50 0
Di, 10.12. 16:40 0
Di, 10.12. 16:30 0
Di, 10.12. 16:00 0
Di, 10.12. 15:30 0
Di, 10.12. 15:00 0
Di, 10.12. 14:30 0
Di, 10.12. 14:00 0
Link zu dieser Seite / Seite empfehlen

Das Wetter in ...